sensor_id;sensor_type;location;lat;lon;timestamp;pressure;altitude;pressure_sealevel;temperature;humidity
829;BME280;396;52.558;13.188;2022-07-06T00:01:38;101552.97;;;17.17;69.02
829;BME280;396;52.558;13.188;2022-07-06T00:04:05;101553.13;;;17.12;69.86
829;BME280;396;52.558;13.188;2022-07-06T00:06:32;101554.28;;;17.11;69.76
829;BME280;396;52.558;13.188;2022-07-06T00:09:00;101553.81;;;17.09;70.62
829;BME280;396;52.558;13.188;2022-07-06T00:11:27;101560.53;;;17.03;70.95
829;BME280;396;52.558;13.188;2022-07-06T00:13:55;101559.41;;;16.95;71.07
829;BME280;396;52.558;13.188;2022-07-06T00:16:22;101560.38;;;16.99;70.70
829;BME280;396;52.558;13.188;2022-07-06T00:18:49;101559.88;;;16.88;71.50
829;BME280;396;52.558;13.188;2022-07-06T00:21:16;101561.47;;;16.81;72.28
829;BME280;396;52.558;13.188;2022-07-06T00:23:43;101558.66;;;16.63;72.74
829;BME280;396;52.558;13.188;2022-07-06T00:26:11;101554.47;;;16.57;73.86
829;BME280;396;52.558;13.188;2022-07-06T00:28:37;101562.19;;;16.55;74.29
829;BME280;396;52.558;13.188;2022-07-06T00:31:04;101567.34;;;16.57;73.41
829;BME280;396;52.558;13.188;2022-07-06T00:33:31;101564.59;;;16.48;73.69
829;BME280;396;52.558;13.188;2022-07-06T00:35:58;101567.28;;;16.39;73.57
829;BME280;396;52.558;13.188;2022-07-06T00:38:25;101574.66;;;16.30;74.45
829;BME280;396;52.558;13.188;2022-07-06T00:40:51;101572.41;;;16.32;74.66
829;BME280;396;52.558;13.188;2022-07-06T00:43:19;101564.19;;;16.32;74.94
829;BME280;396;52.558;13.188;2022-07-06T00:45:46;101569.03;;;16.35;74.94
829;BME280;396;52.558;13.188;2022-07-06T00:48:13;101562.59;;;16.31;74.92
829;BME280;396;52.558;13.188;2022-07-06T00:50:39;101569.81;;;16.27;75.65
829;BME280;396;52.558;13.188;2022-07-06T00:53:07;101573.81;;;16.21;75.35
829;BME280;396;52.558;13.188;2022-07-06T00:55:35;101585.84;;;16.20;74.78
829;BME280;396;52.558;13.188;2022-07-06T00:58:05;101585.22;;;16.23;71.25
829;BME280;396;52.558;13.188;2022-07-06T01:00:34;101580.38;;;16.20;73.07
829;BME280;396;52.558;13.188;2022-07-06T01:03:01;101581.16;;;16.12;72.21
829;BME280;396;52.558;13.188;2022-07-06T01:05:28;101569.53;;;16.06;72.64
829;BME280;396;52.558;13.188;2022-07-06T01:07:55;101571.28;;;16.02;74.37
829;BME280;396;52.558;13.188;2022-07-06T01:10:22;101569.88;;;16.05;75.15
829;BME280;396;52.558;13.188;2022-07-06T01:12:49;101571.19;;;16.07;75.17
829;BME280;396;52.558;13.188;2022-07-06T01:15:18;101571.47;;;16.06;75.57
829;BME280;396;52.558;13.188;2022-07-06T01:17:46;101573.22;;;16.02;76.67
829;BME280;396;52.558;13.188;2022-07-06T01:20:15;101570.13;;;15.95;77.64
829;BME280;396;52.558;13.188;2022-07-06T01:22:42;101565.19;;;16.05;77.24
829;BME280;396;52.558;13.188;2022-07-06T01:25:09;101565.38;;;16.09;76.68
829;BME280;396;52.558;13.188;2022-07-06T01:27:37;101563.78;;;16.08;76.77
829;BME280;396;52.558;13.188;2022-07-06T01:30:05;101574.53;;;16.04;77.40
829;BME280;396;52.558;13.188;2022-07-06T01:32:32;101569.06;;;16.04;77.15
829;BME280;396;52.558;13.188;2022-07-06T01:34:59;101567.00;;;16.10;77.00
829;BME280;396;52.558;13.188;2022-07-06T01:37:27;101563.03;;;16.16;76.23
829;BME280;396;52.558;13.188;2022-07-06T01:39:57;101569.09;;;16.13;77.42
829;BME280;396;52.558;13.188;2022-07-06T01:42:24;101567.97;;;16.14;77.51
829;BME280;396;52.558;13.188;2022-07-06T01:44:51;101561.38;;;16.15;77.30
829;BME280;396;52.558;13.188;2022-07-06T01:47:17;101562.72;;;16.26;76.86
829;BME280;396;52.558;13.188;2022-07-06T01:49:44;101569.81;;;16.27;77.14
829;BME280;396;52.558;13.188;2022-07-06T01:52:10;101561.97;;;16.34;74.97
829;BME280;396;52.558;13.188;2022-07-06T01:54:39;101570.66;;;16.36;74.00
829;BME280;396;52.558;13.188;2022-07-06T01:57:05;101570.03;;;16.39;73.39
829;BME280;396;52.558;13.188;2022-07-06T01:59:32;101584.34;;;16.45;74.15
829;BME280;396;52.558;13.188;2022-07-06T02:01:59;101574.88;;;16.43;74.81
829;BME280;396;52.558;13.188;2022-07-06T02:04:25;101599.34;;;16.48;75.95
829;BME280;396;52.558;13.188;2022-07-06T02:06:52;101599.97;;;16.45;76.51
829;BME280;396;52.558;13.188;2022-07-06T02:09:19;101595.53;;;16.26;80.78
829;BME280;396;52.558;13.188;2022-07-06T02:11:47;101589.88;;;15.92;85.70
829;BME280;396;52.558;13.188;2022-07-06T02:14:13;101591.41;;;15.61;90.04
829;BME280;396;52.558;13.188;2022-07-06T02:16:40;101590.09;;;15.36;95.25
829;BME280;396;52.558;13.188;2022-07-06T02:19:07;101590.72;;;15.33;99.63
829;BME280;396;52.558;13.188;2022-07-06T02:21:34;101585.94;;;15.39;98.51
829;BME280;396;52.558;13.188;2022-07-06T02:24:00;101596.38;;;15.37;99.27
829;BME280;396;52.558;13.188;2022-07-06T02:26:27;101600.31;;;15.31;100.00
829;BME280;396;52.558;13.188;2022-07-06T02:28:55;101595.78;;;15.26;100.00
829;BME280;396;52.558;13.188;2022-07-06T02:31:21;101590.84;;;15.28;100.00
829;BME280;396;52.558;13.188;2022-07-06T02:33:48;101601.13;;;15.31;100.00
829;BME280;396;52.558;13.188;2022-07-06T02:36:15;101595.38;;;15.33;100.00
829;BME280;396;52.558;13.188;2022-07-06T02:38:41;101597.19;;;15.37;100.00
829;BME280;396;52.558;13.188;2022-07-06T02:41:08;101596.25;;;15.42;100.00
829;BME280;396;52.558;13.188;2022-07-06T02:43:36;101595.66;;;15.31;100.00
829;BME280;396;52.558;13.188;2022-07-06T02:46:04;101600.50;;;15.34;100.00
829;BME280;396;52.558;13.188;2022-07-06T02:48:31;101601.03;;;15.36;100.00
829;BME280;396;52.558;13.188;2022-07-06T02:50:58;101596.28;;;15.28;100.00
829;BME280;396;52.558;13.188;2022-07-06T02:53:25;101601.44;;;15.30;100.00
829;BME280;396;52.558;13.188;2022-07-06T02:55:51;101601.56;;;15.25;100.00
829;BME280;396;52.558;13.188;2022-07-06T02:58:18;101606.09;;;15.29;100.00
829;BME280;396;52.558;13.188;2022-07-06T03:00:44;101603.38;;;15.29;100.00
829;BME280;396;52.558;13.188;2022-07-06T03:03:12;101608.38;;;15.36;100.00
829;BME280;396;52.558;13.188;2022-07-06T03:05:39;101606.97;;;15.38;100.00
829;BME280;396;52.558;13.188;2022-07-06T03:08:05;101609.22;;;15.36;100.00
829;BME280;396;52.558;13.188;2022-07-06T03:10:32;101608.91;;;15.38;100.00
829;BME280;396;52.558;13.188;2022-07-06T03:12:59;101616.28;;;15.37;100.00
829;BME280;396;52.558;13.188;2022-07-06T03:15:25;101618.09;;;15.42;100.00
829;BME280;396;52.558;13.188;2022-07-06T03:17:52;101613.44;;;15.43;100.00
829;BME280;396;52.558;13.188;2022-07-06T03:20:20;101614.91;;;15.49;100.00
829;BME280;396;52.558;13.188;2022-07-06T03:22:46;101617.28;;;15.42;100.00
829;BME280;396;52.558;13.188;2022-07-06T03:25:13;101614.47;;;15.33;100.00
829;BME280;396;52.558;13.188;2022-07-06T03:27:39;101615.53;;;15.23;100.00
829;BME280;396;52.558;13.188;2022-07-06T03:30:07;101616.94;;;15.21;100.00
829;BME280;396;52.558;13.188;2022-07-06T03:32:33;101611.91;;;15.14;99.43
829;BME280;396;52.558;13.188;2022-07-06T03:35:00;101613.13;;;15.08;100.00
829;BME280;396;52.558;13.188;2022-07-06T03:37:28;101612.31;;;15.07;100.00
829;BME280;396;52.558;13.188;2022-07-06T03:39:54;101604.00;;;15.12;100.00
829;BME280;396;52.558;13.188;2022-07-06T03:42:21;101605.44;;;15.10;100.00
829;BME280;396;52.558;13.188;2022-07-06T03:44:48;101606.25;;;15.10;100.00
829;BME280;396;52.558;13.188;2022-07-06T03:47:14;101608.63;;;15.26;100.00
829;BME280;396;52.558;13.188;2022-07-06T03:49:41;101608.94;;;15.24;100.00
829;BME280;396;52.558;13.188;2022-07-06T03:52:07;101610.44;;;15.30;100.00
829;BME280;396;52.558;13.188;2022-07-06T03:54:35;101617.28;;;15.42;100.00
829;BME280;396;52.558;13.188;2022-07-06T03:57:03;101618.91;;;15.43;100.00
829;BME280;396;52.558;13.188;2022-07-06T03:59:29;101612.13;;;15.40;100.00
829;BME280;396;52.558;13.188;2022-07-06T04:01:56;101615.56;;;15.46;100.00
829;BME280;396;52.558;13.188;2022-07-06T04:04:22;101618.78;;;15.48;100.00
829;BME280;396;52.558;13.188;2022-07-06T04:06:49;101611.59;;;15.52;100.00
829;BME280;396;52.558;13.188;2022-07-06T04:09:15;101615.13;;;15.52;100.00
829;BME280;396;52.558;13.188;2022-07-06T04:11:43;101616.25;;;15.51;100.00
829;BME280;396;52.558;13.188;2022-07-06T04:14:10;101615.44;;;15.51;100.00
829;BME280;396;52.558;13.188;2022-07-06T04:16:37;101621.50;;;15.48;100.00
829;BME280;396;52.558;13.188;2022-07-06T04:19:03;101622.50;;;15.52;100.00
829;BME280;396;52.558;13.188;2022-07-06T04:21:30;101619.47;;;15.53;100.00
829;BME280;396;52.558;13.188;2022-07-06T04:23:56;101624.91;;;15.53;98.34
829;BME280;396;52.558;13.188;2022-07-06T04:26:23;101631.81;;;15.51;97.35
829;BME280;396;52.558;13.188;2022-07-06T04:28:51;101622.31;;;15.48;96.64
829;BME280;396;52.558;13.188;2022-07-06T04:31:18;101620.50;;;15.44;96.74
829;BME280;396;52.558;13.188;2022-07-06T04:33:44;101622.22;;;15.39;95.22
829;BME280;396;52.558;13.188;2022-07-06T04:36:11;101626.16;;;15.47;94.59
829;BME280;396;52.558;13.188;2022-07-06T04:38:38;101625.25;;;15.52;95.70
829;BME280;396;52.558;13.188;2022-07-06T04:41:04;101620.78;;;15.56;97.12
829;BME280;396;52.558;13.188;2022-07-06T04:43:31;101612.59;;;15.56;96.60
829;BME280;396;52.558;13.188;2022-07-06T04:45:59;101616.00;;;15.61;96.23
829;BME280;396;52.558;13.188;2022-07-06T04:48:26;101615.41;;;15.64;93.42
829;BME280;396;52.558;13.188;2022-07-06T04:50:53;101618.44;;;15.63;91.70
829;BME280;396;52.558;13.188;2022-07-06T04:53:19;101621.34;;;15.67;91.85
829;BME280;396;52.558;13.188;2022-07-06T04:55:46;101621.69;;;15.65;92.52
829;BME280;396;52.558;13.188;2022-07-06T04:58:13;101616.88;;;15.71;92.95
829;BME280;396;52.558;13.188;2022-07-06T05:00:39;101615.03;;;15.80;93.41
829;BME280;396;52.558;13.188;2022-07-06T05:03:07;101613.63;;;15.82;92.59
829;BME280;396;52.558;13.188;2022-07-06T05:05:34;101610.56;;;15.84;88.98
829;BME280;396;52.558;13.188;2022-07-06T05:08:00;101617.66;;;15.85;88.47
829;BME280;396;52.558;13.188;2022-07-06T05:10:27;101618.13;;;15.87;87.77
829;BME280;396;52.558;13.188;2022-07-06T05:12:54;101627.53;;;15.95;88.50
829;BME280;396;52.558;13.188;2022-07-06T05:15:21;101626.88;;;15.98;85.91
829;BME280;396;52.558;13.188;2022-07-06T05:17:48;101637.31;;;15.96;86.15
829;BME280;396;52.558;13.188;2022-07-06T05:20:16;101631.88;;;15.96;87.16
829;BME280;396;52.558;13.188;2022-07-06T05:22:42;101629.00;;;16.01;85.90
829;BME280;396;52.558;13.188;2022-07-06T05:25:09;101630.97;;;16.09;84.74
829;BME280;396;52.558;13.188;2022-07-06T05:27:36;101635.03;;;16.11;86.38
829;BME280;396;52.558;13.188;2022-07-06T05:30:03;101630.41;;;16.21;87.86
829;BME280;396;52.558;13.188;2022-07-06T05:32:30;101633.16;;;16.21;84.56
829;BME280;396;52.558;13.188;2022-07-06T05:34:56;101640.22;;;16.22;83.01
829;BME280;396;52.558;13.188;2022-07-06T05:37:24;101633.50;;;16.28;85.16
829;BME280;396;52.558;13.188;2022-07-06T05:39:51;101635.78;;;16.34;83.59
829;BME280;396;52.558;13.188;2022-07-06T05:42:17;101628.56;;;16.38;85.83
829;BME280;396;52.558;13.188;2022-07-06T05:44:44;101631.59;;;16.37;81.87
829;BME280;396;52.558;13.188;2022-07-06T05:47:11;101628.06;;;16.36;82.91
829;BME280;396;52.558;13.188;2022-07-06T05:49:55;101634.19;;;16.42;84.07
829;BME280;396;52.558;13.188;2022-07-06T05:52:42;101632.44;;;16.46;80.98
829;BME280;396;52.558;13.188;2022-07-06T05:55:10;101631.78;;;16.40;81.39
829;BME280;396;52.558;13.188;2022-07-06T05:57:37;101634.53;;;16.40;82.91
829;BME280;396;52.558;13.188;2022-07-06T06:00:06;101640.84;;;16.50;82.00
829;BME280;396;52.558;13.188;2022-07-06T06:02:37;101638.31;;;16.62;81.79
829;BME280;396;52.558;13.188;2022-07-06T06:05:05;101634.63;;;16.67;80.55
829;BME280;396;52.558;13.188;2022-07-06T06:07:33;101636.75;;;16.70;80.55
829;BME280;396;52.558;13.188;2022-07-06T06:10:03;101623.88;;;16.70;81.36
829;BME280;396;52.558;13.188;2022-07-06T06:12:31;101632.63;;;16.81;80.63
829;BME280;396;52.558;13.188;2022-07-06T06:14:58;101635.19;;;16.77;79.46
829;BME280;396;52.558;13.188;2022-07-06T06:17:25;101637.28;;;16.80;80.86
829;BME280;396;52.558;13.188;2022-07-06T06:19:52;101634.72;;;16.84;80.04
829;BME280;396;52.558;13.188;2022-07-06T06:22:18;101642.63;;;16.85;79.70
829;BME280;396;52.558;13.188;2022-07-06T06:24:45;101643.41;;;16.86;80.22
829;BME280;396;52.558;13.188;2022-07-06T06:27:13;101645.19;;;16.90;79.50
829;BME280;396;52.558;13.188;2022-07-06T06:29:40;101642.03;;;17.06;79.49
829;BME280;396;52.558;13.188;2022-07-06T06:32:07;101634.81;;;17.19;78.49
829;BME280;396;52.558;13.188;2022-07-06T06:34:34;101640.47;;;17.22;78.61
829;BME280;396;52.558;13.188;2022-07-06T06:37:00;101633.69;;;17.37;78.65
829;BME280;396;52.558;13.188;2022-07-06T06:39:27;101637.06;;;17.34;76.43
829;BME280;396;52.558;13.188;2022-07-06T06:41:54;101636.28;;;17.42;77.33
829;BME280;396;52.558;13.188;2022-07-06T06:44:22;101640.97;;;17.42;77.55
829;BME280;396;52.558;13.188;2022-07-06T06:46:49;101644.84;;;17.49;75.49
829;BME280;396;52.558;13.188;2022-07-06T06:49:16;101636.13;;;17.47;72.63
829;BME280;396;52.558;13.188;2022-07-06T06:51:42;101639.19;;;17.63;73.59
829;BME280;396;52.558;13.188;2022-07-06T06:54:09;101642.44;;;17.82;75.60
829;BME280;396;52.558;13.188;2022-07-06T06:56:36;101645.31;;;17.95;68.64
829;BME280;396;52.558;13.188;2022-07-06T06:59:03;101648.22;;;17.98;69.74
829;BME280;396;52.558;13.188;2022-07-06T07:01:31;101647.88;;;18.00;66.81
829;BME280;396;52.558;13.188;2022-07-06T07:03:58;101644.97;;;18.05;66.22
829;BME280;396;52.558;13.188;2022-07-06T07:06:24;101652.72;;;18.03;66.48
829;BME280;396;52.558;13.188;2022-07-06T07:08:51;101646.41;;;18.20;65.38
829;BME280;396;52.558;13.188;2022-07-06T07:11:18;101643.34;;;18.21;67.31
829;BME280;396;52.558;13.188;2022-07-06T07:13:45;101648.16;;;18.24;65.13
829;BME280;396;52.558;13.188;2022-07-06T07:16:11;101648.03;;;18.12;68.54
829;BME280;396;52.558;13.188;2022-07-06T07:18:39;101645.75;;;18.23;66.87
829;BME280;396;52.558;13.188;2022-07-06T07:21:06;101656.03;;;18.34;65.85
829;BME280;396;52.558;13.188;2022-07-06T07:23:33;101656.94;;;18.56;64.27
829;BME280;396;52.558;13.188;2022-07-06T07:25:59;101651.88;;;18.75;62.39
829;BME280;396;52.558;13.188;2022-07-06T07:28:26;101659.88;;;18.89;60.13
829;BME280;396;52.558;13.188;2022-07-06T07:30:53;101652.59;;;18.93;60.50
829;BME280;396;52.558;13.188;2022-07-06T07:33:19;101654.28;;;18.68;61.76
829;BME280;396;52.558;13.188;2022-07-06T07:35:47;101661.25;;;18.74;61.29
829;BME280;396;52.558;13.188;2022-07-06T07:38:14;101652.63;;;18.84;62.27
829;BME280;396;52.558;13.188;2022-07-06T07:40:41;101658.78;;;18.81;62.73
829;BME280;396;52.558;13.188;2022-07-06T07:43:07;101650.28;;;18.74;62.74
829;BME280;396;52.558;13.188;2022-07-06T07:45:34;101655.38;;;18.84;63.39
829;BME280;396;52.558;13.188;2022-07-06T07:48:01;101662.31;;;18.90;62.00
829;BME280;396;52.558;13.188;2022-07-06T07:50:27;101659.63;;;19.03;61.21
829;BME280;396;52.558;13.188;2022-07-06T07:52:56;101667.47;;;18.92;60.87
829;BME280;396;52.558;13.188;2022-07-06T07:55:22;101663.22;;;18.95;61.23
829;BME280;396;52.558;13.188;2022-07-06T07:57:49;101665.19;;;18.94;60.49
829;BME280;396;52.558;13.188;2022-07-06T08:00:16;101661.44;;;18.99;60.00
829;BME280;396;52.558;13.188;2022-07-06T08:02:42;101656.03;;;18.81;58.98
829;BME280;396;52.558;13.188;2022-07-06T08:05:09;101655.56;;;18.79;58.79
829;BME280;396;52.558;13.188;2022-07-06T08:07:39;101658.09;;;18.93;59.30
829;BME280;396;52.558;13.188;2022-07-06T08:10:08;101658.94;;;19.14;57.20
829;BME280;396;52.558;13.188;2022-07-06T08:12:35;101659.16;;;19.30;57.11
829;BME280;396;52.558;13.188;2022-07-06T08:15:02;101656.81;;;19.41;57.48
829;BME280;396;52.558;13.188;2022-07-06T08:17:29;101671.84;;;19.44;58.71
829;BME280;396;52.558;13.188;2022-07-06T08:19:56;101668.97;;;19.61;55.98
829;BME280;396;52.558;13.188;2022-07-06T08:22:23;101661.78;;;19.69;56.75
829;BME280;396;52.558;13.188;2022-07-06T08:24:49;101670.09;;;19.81;52.68
829;BME280;396;52.558;13.188;2022-07-06T08:27:17;101666.94;;;19.91;52.96
829;BME280;396;52.558;13.188;2022-07-06T08:29:44;101670.47;;;19.91;52.50
829;BME280;396;52.558;13.188;2022-07-06T08:32:11;101665.53;;;19.85;52.78
829;BME280;396;52.558;13.188;2022-07-06T08:34:37;101663.31;;;19.78;51.43
829;BME280;396;52.558;13.188;2022-07-06T08:37:04;101664.88;;;19.67;52.42
829;BME280;396;52.558;13.188;2022-07-06T08:39:30;101676.19;;;19.86;53.96
829;BME280;396;52.558;13.188;2022-07-06T08:41:58;101667.53;;;19.97;52.90
829;BME280;396;52.558;13.188;2022-07-06T08:44:29;101666.91;;;20.12;51.66
829;BME280;396;52.558;13.188;2022-07-06T08:46:57;101666.53;;;20.01;51.42
829;BME280;396;52.558;13.188;2022-07-06T08:49:25;101667.81;;;19.83;51.34
829;BME280;396;52.558;13.188;2022-07-06T08:51:52;101659.47;;;19.91;52.21
829;BME280;396;52.558;13.188;2022-07-06T08:54:20;101664.16;;;20.12;50.72
829;BME280;396;52.558;13.188;2022-07-06T08:56:47;101662.75;;;20.06;50.17
829;BME280;396;52.558;13.188;2022-07-06T08:59:15;101664.94;;;20.12;50.98
829;BME280;396;52.558;13.188;2022-07-06T09:01:44;101652.47;;;20.27;50.29
829;BME280;396;52.558;13.188;2022-07-06T09:04:11;101668.34;;;20.42;48.85
829;BME280;396;52.558;13.188;2022-07-06T09:06:41;101665.59;;;20.42;48.56
829;BME280;396;52.558;13.188;2022-07-06T09:09:09;101671.59;;;20.57;48.42
829;BME280;396;52.558;13.188;2022-07-06T09:11:36;101671.84;;;20.52;48.85
829;BME280;396;52.558;13.188;2022-07-06T09:14:03;101674.53;;;20.39;49.51
829;BME280;396;52.558;13.188;2022-07-06T09:16:30;101674.31;;;20.45;50.06
829;BME280;396;52.558;13.188;2022-07-06T09:18:58;101673.38;;;20.40;48.45
829;BME280;396;52.558;13.188;2022-07-06T09:21:28;101675.66;;;20.26;49.00
829;BME280;396;52.558;13.188;2022-07-06T09:23:58;101676.56;;;20.30;49.43
829;BME280;396;52.558;13.188;2022-07-06T09:26:26;101678.44;;;20.38;49.06
829;BME280;396;52.558;13.188;2022-07-06T09:28:55;101671.97;;;20.22;50.73
829;BME280;396;52.558;13.188;2022-07-06T09:31:22;101671.75;;;20.27;50.96
829;BME280;396;52.558;13.188;2022-07-06T09:34:01;101686.88;;;20.21;49.43
829;BME280;396;52.558;13.188;2022-07-06T09:36:38;101681.81;;;20.11;49.36
829;BME280;396;52.558;13.188;2022-07-06T09:39:18;101688.63;;;20.05;49.72
829;BME280;396;52.558;13.188;2022-07-06T09:41:46;101690.63;;;19.83;49.40
829;BME280;396;52.558;13.188;2022-07-06T09:44:13;101696.13;;;19.62;51.39
829;BME280;396;52.558;13.188;2022-07-06T09:46:46;101691.28;;;19.59;51.17
829;BME280;396;52.558;13.188;2022-07-06T09:49:16;101689.84;;;19.62;50.95
829;BME280;396;52.558;13.188;2022-07-06T09:51:44;101685.38;;;19.70;52.15
829;BME280;396;52.558;13.188;2022-07-06T09:54:11;101691.69;;;19.91;52.45
829;BME280;396;52.558;13.188;2022-07-06T09:56:37;101689.28;;;19.89;51.48
829;BME280;396;52.558;13.188;2022-07-06T09:59:11;101691.53;;;19.87;51.98
829;BME280;396;52.558;13.188;2022-07-06T10:01:39;101682.91;;;19.98;51.61
829;BME280;396;52.558;13.188;2022-07-06T10:04:06;101688.84;;;20.00;51.79
829;BME280;396;52.558;13.188;2022-07-06T10:06:35;101690.75;;;19.87;53.77
829;BME280;396;52.558;13.188;2022-07-06T10:09:05;101685.13;;;19.83;53.26
829;BME280;396;52.558;13.188;2022-07-06T10:11:34;101685.81;;;19.80;53.82
829;BME280;396;52.558;13.188;2022-07-06T10:14:05;101691.03;;;19.73;55.25
829;BME280;396;52.558;13.188;2022-07-06T10:16:33;101691.16;;;19.98;52.87
829;BME280;396;52.558;13.188;2022-07-06T10:19:02;101682.03;;;20.18;51.10
829;BME280;396;52.558;13.188;2022-07-06T10:21:30;101680.94;;;20.31;51.98
829;BME280;396;52.558;13.188;2022-07-06T10:23:59;101676.56;;;20.30;50.84
829;BME280;396;52.558;13.188;2022-07-06T10:26:27;101682.84;;;20.52;50.33
829;BME280;396;52.558;13.188;2022-07-06T10:28:54;101682.50;;;20.53;50.56
829;BME280;396;52.558;13.188;2022-07-06T10:31:22;101682.88;;;20.76;48.28
829;BME280;396;52.558;13.188;2022-07-06T10:33:49;101681.38;;;21.03;48.95
829;BME280;396;52.558;13.188;2022-07-06T10:36:16;101679.19;;;21.33;49.77
829;BME280;396;52.558;13.188;2022-07-06T10:38:48;101680.19;;;21.53;47.99
829;BME280;396;52.558;13.188;2022-07-06T10:41:17;101674.59;;;21.37;48.43
829;BME280;396;52.558;13.188;2022-07-06T10:43:45;101675.59;;;21.57;49.11
829;BME280;396;52.558;13.188;2022-07-06T10:46:13;101677.16;;;21.71;47.00
829;BME280;396;52.558;13.188;2022-07-06T10:48:41;101670.72;;;21.66;45.87
829;BME280;396;52.558;13.188;2022-07-06T10:51:10;101674.31;;;21.55;46.49
829;BME280;396;52.558;13.188;2022-07-06T10:53:38;101665.38;;;21.46;47.13
829;BME280;396;52.558;13.188;2022-07-06T10:56:07;101676.19;;;21.26;47.27
829;BME280;396;52.558;13.188;2022-07-06T10:58:36;101676.91;;;20.86;48.40
829;BME280;396;52.558;13.188;2022-07-06T11:01:06;101675.28;;;20.61;50.24
829;BME280;396;52.558;13.188;2022-07-06T11:03:37;101685.41;;;20.24;49.16
829;BME280;396;52.558;13.188;2022-07-06T11:06:10;101683.09;;;20.26;49.80
829;BME280;396;52.558;13.188;2022-07-06T11:08:52;101679.69;;;20.29;49.48
829;BME280;396;52.558;13.188;2022-07-06T11:11:20;101686.00;;;20.41;48.60
829;BME280;396;52.558;13.188;2022-07-06T11:13:51;101680.72;;;20.36;47.85
829;BME280;396;52.558;13.188;2022-07-06T11:16:18;101681.19;;;20.38;49.84
829;BME280;396;52.558;13.188;2022-07-06T11:18:49;101687.84;;;20.37;49.16
829;BME280;396;52.558;13.188;2022-07-06T11:21:23;101682.00;;;20.06;50.64
829;BME280;396;52.558;13.188;2022-07-06T11:23:50;101686.34;;;20.28;49.50
829;BME280;396;52.558;13.188;2022-07-06T11:26:17;101692.59;;;20.61;49.95
829;BME280;396;52.558;13.188;2022-07-06T11:28:46;101679.06;;;20.93;48.81
829;BME280;396;52.558;13.188;2022-07-06T11:31:15;101689.75;;;21.19;47.93
829;BME280;396;52.558;13.188;2022-07-06T11:33:45;101680.31;;;21.20;47.12
829;BME280;396;52.558;13.188;2022-07-06T11:36:16;101677.34;;;21.37;47.19
829;BME280;396;52.558;13.188;2022-07-06T11:38:44;101678.94;;;21.26;47.31
829;BME280;396;52.558;13.188;2022-07-06T11:41:12;101688.38;;;21.13;46.86
829;BME280;396;52.558;13.188;2022-07-06T11:43:40;101681.75;;;20.89;47.32
829;BME280;396;52.558;13.188;2022-07-06T11:46:23;101681.47;;;20.70;48.09
829;BME280;396;52.558;13.188;2022-07-06T11:48:52;101684.38;;;20.40;48.78
829;BME280;396;52.558;13.188;2022-07-06T11:51:19;101679.91;;;20.36;49.49
829;BME280;396;52.558;13.188;2022-07-06T11:53:47;101686.25;;;20.36;49.66
829;BME280;396;52.558;13.188;2022-07-06T11:56:15;101672.84;;;20.14;49.11
829;BME280;396;52.558;13.188;2022-07-06T11:58:45;101661.84;;;20.14;50.42
829;BME280;396;52.558;13.188;2022-07-06T12:01:12;101659.47;;;20.25;50.47
829;BME280;396;52.558;13.188;2022-07-06T12:03:41;101665.13;;;20.40;50.51
829;BME280;396;52.558;13.188;2022-07-06T12:06:13;101661.28;;;20.66;50.25
829;BME280;396;52.558;13.188;2022-07-06T12:08:41;101665.19;;;21.14;49.33
829;BME280;396;52.558;13.188;2022-07-06T12:11:09;101656.56;;;21.68;49.21
829;BME280;396;52.558;13.188;2022-07-06T12:13:36;101659.78;;;21.98;46.42
829;BME280;396;52.558;13.188;2022-07-06T12:16:09;101661.91;;;22.17;46.20
829;BME280;396;52.558;13.188;2022-07-06T12:18:37;101659.59;;;22.35;45.39
829;BME280;396;52.558;13.188;2022-07-06T12:21:07;101665.94;;;22.51;45.15
829;BME280;396;52.558;13.188;2022-07-06T12:23:42;101656.41;;;22.49;45.32
829;BME280;396;52.558;13.188;2022-07-06T12:26:09;101659.97;;;22.65;46.68
829;BME280;396;52.558;13.188;2022-07-06T12:28:36;101656.31;;;22.61;46.39
829;BME280;396;52.558;13.188;2022-07-06T12:31:03;101647.66;;;22.15;45.92
829;BME280;396;52.558;13.188;2022-07-06T12:33:30;101635.81;;;22.14;45.98
829;BME280;396;52.558;13.188;2022-07-06T12:35:56;101647.00;;;22.06;46.06
829;BME280;396;52.558;13.188;2022-07-06T12:38:25;101638.41;;;21.95;45.18
829;BME280;396;52.558;13.188;2022-07-06T12:40:53;101627.31;;;21.91;45.46
829;BME280;396;52.558;13.188;2022-07-06T12:43:36;101633.03;;;21.86;46.24
829;BME280;396;52.558;13.188;2022-07-06T12:46:25;101632.41;;;21.77;46.23
829;BME280;396;52.558;13.188;2022-07-06T12:48:53;101632.59;;;21.84;44.89
829;BME280;396;52.558;13.188;2022-07-06T12:51:20;101643.66;;;21.84;44.74
829;BME280;396;52.558;13.188;2022-07-06T12:53:48;101632.22;;;21.70;45.37
829;BME280;396;52.558;13.188;2022-07-06T12:56:15;101631.22;;;22.06;45.00
829;BME280;396;52.558;13.188;2022-07-06T12:58:55;101638.94;;;21.57;45.44
829;BME280;396;52.558;13.188;2022-07-06T13:01:22;101634.41;;;21.92;45.25
829;BME280;396;52.558;13.188;2022-07-06T13:03:53;101636.19;;;22.60;43.76
829;BME280;396;52.558;13.188;2022-07-06T13:06:28;101639.63;;;23.05;42.30
829;BME280;396;52.558;13.188;2022-07-06T13:08:56;101638.09;;;23.81;42.66
829;BME280;396;52.558;13.188;2022-07-06T13:11:23;101637.00;;;24.51;40.30
829;BME280;396;52.558;13.188;2022-07-06T13:13:50;101637.03;;;25.04;38.92
829;BME280;396;52.558;13.188;2022-07-06T13:16:17;101651.41;;;25.40;38.81
829;BME280;396;52.558;13.188;2022-07-06T13:18:44;101640.03;;;25.19;38.14
829;BME280;396;52.558;13.188;2022-07-06T13:21:10;101641.09;;;24.84;39.87
829;BME280;396;52.558;13.188;2022-07-06T13:23:37;101633.88;;;24.53;39.97